Time;durP1;ratioP1;P1;durP2;ratioP2;P2;SDS_P1;SDS_P2;PMS_P1;PMS_P2;Temp;Humidity;BMP_temperature;BMP_pressure;BME280_temperature;BME280_humidity;BME280_pressure;Samples;Min_cycle;Max_cycle;Signal;HPM_P1;HPM_P2
2022/07/30 00:01:50;;;;;;;9.23;6.70;;;;;;;24.43;52.58;99107.56;5034068;28;20174;-84
2022/07/30 00:04:15;;;;;;;7.33;6.37;;;;;;;25.09;52.29;99210.03;5034063;28;20189;-84
2022/07/30 00:06:41;;;;;;;11.13;6.57;;;;;;;24.38;52.64;99093.84;5034271;28;20170;-84
2022/07/30 00:09:06;;;;;;;8.73;7.03;;;;;;;25.04;52.58;99206.66;5034291;28;20167;-84
2022/07/30 00:11:32;;;;;;;7.43;6.63;;;;;;;24.58;52.91;99135.81;5034264;28;20181;-84
2022/07/30 00:13:57;;;;;;;8.70;7.00;;;;;;;24.11;52.36;99040.84;5035020;28;20202;-83
2022/07/30 00:16:23;;;;;;;10.27;6.73;;;;;;;24.62;52.67;99140.03;5034343;28;20168;-84
2022/07/30 00:18:48;;;;;;;10.47;6.70;;;;;;;24.01;53.17;99042.66;5033481;28;20253;-83
2022/07/30 00:21:14;;;;;;;10.17;6.50;;;;;;;24.92;53.74;99206.88;5034061;28;20166;-84
2022/07/30 00:23:39;;;;;;;8.37;6.63;;;;;;;24.31;53.39;99105.19;5033966;28;20154;-83
2022/07/30 00:26:05;;;;;;;8.67;6.67;;;;;;;24.91;52.79;99200.00;5037088;28;20185;-84
2022/07/30 00:28:30;;;;;;;7.03;6.33;;;;;;;24.35;53.55;99109.44;5038009;28;20181;-83
2022/07/30 00:30:55;;;;;;;9.37;6.50;;;;;;;24.91;53.97;99210.38;5038108;28;20590;-83
2022/07/30 00:33:21;;;;;;;10.27;6.33;;;;;;;24.57;53.67;99142.72;5037832;28;20173;-83
2022/07/30 00:35:46;;;;;;;7.53;6.60;;;;;;;24.17;53.88;99089.91;5037883;28;20236;-83
2022/07/30 00:38:12;;;;;;;10.57;6.73;;;;;;;24.67;54.81;99180.50;5020044;28;20170;-83
2022/07/30 00:40:39;;;;;;;9.03;6.40;;;;;;;24.84;54.49;99195.78;5037902;28;20162;-83
2022/07/30 00:43:04;;;;;;;10.73;6.90;;;;;;;24.16;55.13;99095.06;5037454;28;20227;-83
2022/07/30 00:45:29;;;;;;;9.13;6.60;;;;;;;24.50;55.51;99140.25;5038175;28;20158;-83
2022/07/30 00:47:55;;;;;;;9.37;6.40;;;;;;;24.08;55.40;99074.47;5038483;28;20197;-84
2022/07/30 00:50:20;;;;;;;10.03;7.00;;;;;;;23.02;55.07;98887.38;5038038;28;20536;-83
2022/07/30 00:52:46;;;;;;;8.37;7.20;;;;;;;24.60;55.81;99191.00;5037607;28;20610;-83
2022/07/30 00:55:14;;;;;;;10.50;7.27;;;;;;;24.47;56.38;99181.72;5020134;28;20198;-83
2022/07/30 00:57:40;;;;;;;9.37;7.63;;;;;;;22.72;57.14;98929.09;5037284;28;20174;-83
2022/07/30 01:00:08;;;;;;;10.30;7.30;;;;;;;22.17;58.42;98851.47;5037025;28;20563;-83
2022/07/30 01:02:34;;;;;;;9.97;7.50;;;;;;;22.80;59.45;98992.66;5036837;28;20173;-85
2022/07/30 01:04:59;;;;;;;11.17;7.40;;;;;;;23.18;59.88;99082.63;5037670;28;20544;-84
2022/07/30 01:07:25;;;;;;;11.57;7.50;;;;;;;20.85;59.86;98708.50;5037606;28;20708;-83
2022/07/30 01:09:50;;;;;;;10.47;7.97;;;;;;;20.49;60.38;98629.94;5019823;28;20170;-84
2022/07/30 01:12:20;;;;;;;9.47;7.80;;;;;;;23.74;60.31;99190.47;5037375;28;20177;-83
2022/07/30 01:14:46;;;;;;;11.50;7.70;;;;;;;22.97;60.36;99056.16;5037177;28;20222;-83
2022/07/30 01:17:12;;;;;;;10.53;8.00;;;;;;;22.26;60.50;98945.09;5037682;28;20154;-83
2022/07/30 01:19:47;;;;;;;11.30;8.00;;;;;;;22.91;61.42;99050.19;5037571;28;20264;-83
2022/07/30 01:22:25;;;;;;;10.47;7.80;;;;;;;23.69;60.84;99175.88;5037539;28;20173;-83
2022/07/30 01:24:56;;;;;;;10.07;7.73;;;;;;;21.91;60.62;98892.16;5037108;28;20164;-83
2022/07/30 01:27:23;;;;;;;8.33;7.00;;;;;;;22.32;63.59;99060.25;5036914;28;20170;-83
2022/07/30 01:29:51;;;;;;;11.07;7.33;;;;;;;22.54;64.29;99103.03;5037084;28;20547;-84
2022/07/30 01:32:22;;;;;;;11.60;7.53;;;;;;;21.28;64.42;98920.16;5036900;28;20634;-84
2022/07/30 01:34:49;;;;;;;9.37;7.20;;;;;;;22.83;64.17;99178.50;5036847;28;20232;-84
2022/07/30 01:37:16;;;;;;;9.57;7.47;;;;;;;20.95;63.89;98899.72;5018976;28;20166;-84
2022/07/30 01:39:43;;;;;;;7.97;7.17;;;;;;;22.29;63.99;99110.13;5019045;28;20207;-85
2022/07/30 01:42:10;;;;;;;10.27;6.90;;;;;;;20.77;63.52;98832.91;5037569;28;20167;-85
2022/07/30 01:44:38;;;;;;;8.53;6.80;;;;;;;20.66;63.54;98827.00;5038968;28;20171;-85
2022/07/30 01:47:05;;;;;;;8.83;7.10;;;;;;;21.15;63.66;98924.50;5038865;28;20162;-84
2022/07/30 01:49:33;;;;;;;9.63;6.77;;;;;;;22.57;63.02;99183.00;5038230;28;20640;-84
2022/07/30 01:52:00;;;;;;;8.80;6.80;;;;;;;21.74;63.45;99034.88;5036853;28;20189;-85
2022/07/30 01:54:28;;;;;;;7.93;6.70;;;;;;;22.67;63.40;99174.34;5037120;28;20186;-85
2022/07/30 01:56:56;;;;;;;7.67;6.80;;;;;;;22.70;64.00;99169.16;5036283;28;20178;-84
2022/07/30 01:59:23;;;;;;;12.03;7.73;;;;;;;22.46;63.55;99125.47;5036089;28;20162;-83
2022/07/30 02:01:49;;;;;;;11.40;8.20;;;;;;;22.72;63.22;99163.97;5036855;28;20573;-82
2022/07/30 02:04:15;;;;;;;9.47;7.50;;;;;;;22.58;62.83;99152.91;5019634;28;20173;-83
2022/07/30 02:06:55;;;;;;;9.67;7.57;;;;;;;22.50;65.02;99183.91;5036715;28;20177;-84
2022/07/30 02:09:25;;;;;;;15.53;8.17;;;;;;;22.41;66.73;99173.69;5036691;28;20197;-83
2022/07/30 02:14:51;;;;;;;11.37;8.10;;;;;;;22.57;67.32;99171.81;5034813;28;20217;-83
2022/07/30 02:17:22;;;;;;;9.93;7.97;;;;;;;22.14;67.26;99110.22;5035834;28;20158;-84
2022/07/30 02:19:51;;;;;;;12.43;8.53;;;;;;;22.58;67.00;99170.97;5036331;28;20646;-84
2022/07/30 02:22:19;;;;;;;11.07;8.20;;;;;;;22.51;67.20;99171.88;5034826;28;20242;-83
2022/07/30 02:24:46;;;;;;;9.53;7.20;;;;;;;22.48;67.36;99169.31;5035872;28;20653;-83
2022/07/30 02:27:17;;;;;;;10.07;7.60;;;;;;;22.47;67.84;99183.94;5035982;28;20174;-83
2022/07/30 02:29:44;;;;;;;10.77;7.80;;;;;;;22.39;68.17;99170.22;5036772;28;20165;-83
2022/07/30 02:32:14;;;;;;;9.33;7.50;;;;;;;20.44;67.80;98828.81;5036085;28;20166;-82
2022/07/30 02:34:42;;;;;;;9.63;7.50;;;;;;;21.85;68.37;99103.53;5035835;28;20226;-83
2022/07/30 02:37:11;;;;;;;9.83;8.13;;;;;;;21.99;68.87;99159.34;5018018;28;20180;-83
2022/07/30 02:39:38;;;;;;;9.60;8.00;;;;;;;22.04;69.02;99185.94;5035987;28;20554;-84
2022/07/30 02:42:06;;;;;;;10.60;8.20;;;;;;;22.12;68.45;99173.00;5035932;28;20176;-83
2022/07/30 02:44:34;;;;;;;12.90;8.00;;;;;;;22.14;68.19;99168.72;5035487;28;20228;-84
2022/07/30 02:47:01;;;;;;;9.90;7.87;;;;;;;21.70;68.12;99097.59;5035043;28;20169;-84
2022/07/30 02:49:30;;;;;;;11.00;7.60;;;;;;;22.14;67.40;99168.72;5035634;28;20622;-84
2022/07/30 02:51:57;;;;;;;10.90;7.80;;;;;;;20.74;67.54;98930.72;5035806;28;20201;-84
2022/07/30 02:54:25;;;;;;;9.53;7.63;;;;;;;20.89;67.83;98959.81;5017939;28;20206;-83
2022/07/30 02:56:52;;;;;;;9.80;7.97;;;;;;;21.55;67.68;99120.88;5036035;28;20194;-84
2022/07/30 02:59:20;;;;;;;11.53;7.47;;;;;;;21.90;68.02;99164.53;5034472;28;20200;-84
2022/07/30 03:01:47;;;;;;;8.90;7.20;;;;;;;21.28;67.92;99074.66;5035834;28;20668;-84
2022/07/30 03:04:15;;;;;;;9.83;7.63;;;;;;;18.99;68.21;98698.22;5035574;28;20159;-83
2022/07/30 03:06:42;;;;;;;12.93;7.87;;;;;;;21.86;67.89;99156.81;5035118;28;20173;-83
2022/07/30 03:09:09;;;;;;;12.17;7.90;;;;;;;19.67;68.01;98781.09;5035164;28;20166;-83
2022/07/30 03:11:35;;;;;;;8.67;7.77;;;;;;;21.44;67.59;99086.59;5035285;28;20177;-83
2022/07/30 03:14:02;;;;;;;10.20;7.67;;;;;;;19.92;67.50;98808.44;5035426;28;20194;-83
2022/07/30 03:16:30;;;;;;;10.60;8.00;;;;;;;20.43;67.88;98909.41;5035191;28;20170;-83
2022/07/30 03:19:01;;;;;;;11.93;8.40;;;;;;;19.83;67.82;98797.34;5035459;28;20241;-82
2022/07/30 03:21:27;;;;;;;9.20;7.90;;;;;;;20.51;67.85;98905.09;5035381;28;20185;-83
2022/07/30 03:23:57;;;;;;;10.43;8.27;;;;;;;20.97;68.30;99006.09;5035534;28;20208;-83
2022/07/30 03:26:24;;;;;;;9.33;8.17;;;;;;;19.82;68.60;98811.03;5034904;28;20174;-83
2022/07/30 03:28:50;;;;;;;9.47;8.20;;;;;;;19.47;67.85;98712.69;5035011;28;20534;-84
2022/07/30 03:31:16;;;;;;;8.70;7.70;;;;;;;20.79;67.50;98929.00;5035139;28;20162;-84
2022/07/30 03:33:42;;;;;;;16.00;8.43;;;;;;;20.92;67.32;98966.66;5034737;28;20169;-83
2022/07/30 03:36:11;;;;;;;22.60;9.03;;;;;;;22.07;67.76;99149.84;5034424;28;20261;-84
2022/07/30 03:38:38;;;;;;;15.77;8.90;;;;;;;22.11;68.28;99159.25;5034736;28;20273;-83
2022/07/30 03:41:05;;;;;;;13.57;8.63;;;;;;;21.76;67.82;99074.38;5034863;28;20166;-84
2022/07/30 03:43:31;;;;;;;13.23;9.57;;;;;;;20.18;66.72;98804.94;5034904;28;20253;-83
2022/07/30 03:45:57;;;;;;;20.57;9.57;;;;;;;22.49;66.70;99166.72;5034781;28;20241;-84
2022/07/30 03:48:24;;;;;;;14.43;9.00;;;;;;;22.47;66.90;99173.59;5034544;28;20639;-83
2022/07/30 03:50:50;;;;;;;12.33;8.80;;;;;;;22.23;66.61;99117.06;5034970;28;20166;-83
2022/07/30 03:53:18;;;;;;;10.90;8.80;;;;;;;21.60;66.37;99047.00;5035232;28;20634;-83
2022/07/30 03:55:43;;;;;;;11.87;8.50;;;;;;;20.27;68.41;98889.75;5034817;28;20212;-84
2022/07/30 03:58:10;;;;;;;11.87;9.10;;;;;;;21.43;69.10;99102.91;5034787;28;20162;-85
2022/07/30 04:00:37;;;;;;;11.63;8.50;;;;;;;20.60;68.67;98943.66;5035947;28;20241;-85
2022/07/30 04:03:03;;;;;;;18.93;10.13;;;;;;;19.06;68.18;98651.19;5033791;28;20154;-84
2022/07/30 04:05:28;;;;;;;15.23;10.20;;;;;;;22.18;67.28;99191.03;5035348;28;20166;-84
2022/07/30 04:07:54;;;;;;;17.73;8.97;;;;;;;20.82;67.52;98954.72;5017448;28;20158;-84
2022/07/30 04:10:19;;;;;;;12.13;9.30;;;;;;;19.98;68.48;98846.09;5034736;28;20201;-85
2022/07/30 04:12:44;;;;;;;13.10;9.50;;;;;;;22.17;68.03;99176.41;5034594;28;20623;-85
2022/07/30 04:15:10;;;;;;;11.73;9.50;;;;;;;19.70;67.61;98744.28;5034508;28;20192;-85
2022/07/30 04:17:41;;;;;;;11.60;9.87;;;;;;;22.32;67.38;99189.22;5034698;28;20170;-84
2022/07/30 04:20:15;;;;;;;13.57;9.73;;;;;;;22.15;68.49;99191.03;5034690;28;20245;-85
2022/07/30 04:22:42;;;;;;;12.57;10.07;;;;;;;22.07;69.47;99180.78;5034580;28;20161;-84
2022/07/30 04:25:08;;;;;;;15.53;10.27;;;;;;;20.30;69.17;98857.16;5034214;28;20216;-84
2022/07/30 04:27:35;;;;;;;15.17;10.90;;;;;;;21.34;68.41;98997.38;5034387;28;20170;-84
2022/07/30 04:30:01;;;;;;;15.73;11.77;;;;;;;22.62;67.45;99186.41;5034157;28;20173;-84
2022/07/30 04:32:27;;;;;;;16.03;11.57;;;;;;;22.54;68.23;99190.78;5016442;28;20170;-84
2022/07/30 04:34:54;;;;;;;24.70;17.60;;;;;;;21.64;67.47;99004.03;5034261;28;20713;-84
2022/07/30 04:37:26;;;;;;;22.00;14.40;;;;;;;22.30;67.25;99100.69;5034267;28;20170;-84
2022/07/30 04:39:56;;;;;;;18.30;11.40;;;;;;;22.14;67.10;99047.53;5034426;28;20172;-84
2022/07/30 04:42:23;;;;;;;15.77;11.00;;;;;;;23.02;67.02;99184.34;5034371;28;20158;-84
2022/07/30 04:44:49;;;;;;;17.27;10.60;;;;;;;22.44;66.46;99078.19;5034580;28;20561;-84
2022/07/30 04:47:15;;;;;;;15.23;10.83;;;;;;;22.34;66.95;99074.84;5016329;28;20171;-84
2022/07/30 04:49:42;;;;;;;15.00;10.93;;;;;;;21.53;66.56;98938.88;5034000;28;20329;-84
2022/07/30 04:52:09;;;;;;;14.90;10.60;;;;;;;23.24;66.58;99191.00;5033906;28;20174;-84
2022/07/30 04:54:56;;;;;;;12.33;10.10;;;;;;;22.77;65.25;99043.50;5033320;28;20343;-84
2022/07/30 04:57:23;;;;;;;17.53;11.30;;;;;;;22.86;65.59;99113.94;5034256;28;20660;-84
2022/07/30 04:59:49;;;;;;;16.00;11.33;;;;;;;23.19;66.87;99189.34;5016316;28;20607;-85
2022/07/30 05:02:17;;;;;;;17.07;12.37;;;;;;;23.01;68.23;99190.41;5033092;28;20215;-84
2022/07/30 05:04:44;;;;;;;17.37;11.77;;;;;;;22.91;68.96;99181.88;5033890;28;20260;-84
2022/07/30 05:07:12;;;;;;;15.43;11.63;;;;;;;22.99;68.61;99181.78;5034015;28;20162;-84
2022/07/30 05:09:38;;;;;;;15.50;11.70;;;;;;;21.06;70.67;98910.81;5033795;28;20172;-84
2022/07/30 05:12:03;;;;;;;16.13;11.60;;;;;;;22.03;70.70;99067.38;5037145;28;20245;-84
2022/07/30 05:14:29;;;;;;;17.43;11.93;;;;;;;21.57;70.93;98959.41;5037515;28;20221;-84
2022/07/30 05:16:54;;;;;;;17.47;11.57;;;;;;;19.82;70.57;98651.78;5037333;28;20516;-84
2022/07/30 05:19:21;;;;;;;16.50;11.50;;;;;;;22.92;70.00;99181.00;5037369;28;20164;-85
2022/07/30 05:21:46;;;;;;;17.00;11.00;;;;;;;23.35;68.00;99180.56;5037323;28;20163;-84
2022/07/30 05:24:12;;;;;;;19.20;13.10;;;;;;;20.11;67.16;98660.16;5037652;28;20166;-84
2022/07/30 05:26:38;;;;;;;17.87;13.07;;;;;;;21.81;67.06;98942.91;5037801;28;20341;-84
2022/07/30 05:29:04;;;;;;;18.77;13.33;;;;;;;21.82;67.44;98938.59;5038935;28;20631;-83
2022/07/30 05:31:29;;;;;;;15.47;11.43;;;;;;;22.00;66.11;98954.78;5038762;28;20170;-84
2022/07/30 05:33:55;;;;;;;18.57;12.10;;;;;;;22.62;67.54;99072.00;5037408;28;20677;-84
2022/07/30 05:36:20;;;;;;;13.63;11.80;;;;;;;22.28;66.77;98996.63;5036512;28;20291;-83
2022/07/30 05:38:46;;;;;;;14.50;11.20;;;;;;;22.92;65.77;99058.78;5036249;28;20173;-83
2022/07/30 05:41:11;;;;;;;15.83;10.57;;;;;;;21.70;63.89;98785.81;5036933;28;20618;-83
2022/07/30 05:43:37;;;;;;;12.33;10.57;;;;;;;21.96;64.18;98833.69;5036777;28;20193;-84
2022/07/30 05:46:02;;;;;;;12.77;10.60;;;;;;;23.63;62.65;99091.50;5036268;28;20170;-84
2022/07/30 05:48:30;;;;;;;15.50;10.57;;;;;;;23.05;62.12;98923.50;5037518;28;20625;-85
2022/07/30 05:50:55;;;;;;;14.30;10.50;;;;;;;24.66;62.11;99177.94;5037290;28;20158;-85
2022/07/30 05:53:21;;;;;;;12.17;10.40;;;;;;;25.05;60.36;99192.81;5039036;28;20174;-85
2022/07/30 05:55:47;;;;;;;16.60;10.50;;;;;;;24.84;59.64;99115.50;5019251;28;20244;-85
2022/07/30 05:58:12;;;;;;;13.80;10.07;;;;;;;24.80;59.09;99072.44;5036639;28;20169;-84
2022/07/30 06:00:38;;;;;;;15.70;9.63;;;;;;;25.08;57.87;99086.53;5036738;28;20181;-85
2022/07/30 06:03:03;;;;;;;12.57;9.97;;;;;;;24.02;57.72;98904.72;5036550;28;20154;-84
2022/07/30 06:05:31;;;;;;;14.63;10.40;;;;;;;26.00;56.64;99171.94;5036874;28;20307;-84
2022/07/30 06:07:56;;;;;;;12.07;10.10;;;;;;;25.83;56.88;99175.78;5036363;28;20213;-83
2022/07/30 06:10:22;;;;;;;13.03;9.77;;;;;;;24.56;55.33;98899.38;5036144;28;20162;-84
2022/07/30 06:12:47;;;;;;;12.70;9.90;;;;;;;25.52;54.58;99020.00;5036368;28;20220;-84
2022/07/30 06:15:13;;;;;;;14.13;9.40;;;;;;;24.73;54.13;98868.81;5036202;28;20186;-84
2022/07/30 06:17:43;;;;;;;15.00;10.30;;;;;;;26.23;54.04;99091.81;5036170;28;20188;-84
2022/07/30 06:20:14;;;;;;;12.00;9.90;;;;;;;26.90;52.69;99165.47;5034945;28;20162;-84
2022/07/30 06:22:39;;;;;;;12.63;10.80;;;;;;;25.60;53.06;98932.53;5034125;28;20155;-85
2022/07/30 06:25:06;;;;;;;10.82;9.32;;;;;;;27.03;51.74;99142.66;5032571;28;20260;-85
2022/07/30 06:27:35;;;;;;;11.15;9.85;;;;;;;26.98;51.78;99134.09;5035334;28;20180;-84
2022/07/30 06:30:02;;;;;;;13.38;9.63;;;;;;;26.70;52.37;99186.72;5036145;28;20164;-84
2022/07/30 06:32:28;;;;;;;16.60;9.90;;;;;;;26.82;52.27;99165.69;5017394;28;20179;-84
2022/07/30 06:34:53;;;;;;;12.52;9.60;;;;;;;27.39;51.39;99178.88;5035646;28;20247;-85
2022/07/30 06:37:18;;;;;;;13.40;9.75;;;;;;;27.55;51.19;99178.50;5019859;28;20186;-83
2022/07/30 06:39:44;;;;;;;14.13;9.93;;;;;;;27.69;50.01;99179.78;5040571;28;20177;-83
2022/07/30 06:42:09;;;;;;;12.30;9.85;;;;;;;27.30;49.52;99192.16;5035337;28;20181;-84
2022/07/30 06:44:35;;;;;;;11.52;9.98;;;;;;;25.27;50.05;98806.31;5035465;28;20612;-85
2022/07/30 06:47:00;;;;;;;15.68;9.90;;;;;;;27.42;49.35;99118.16;5035678;28;20170;-84
2022/07/30 06:49:25;;;;;;;15.02;10.20;;;;;;;27.77;50.33;99201.22;5035425;28;20169;-84
2022/07/30 06:51:51;;;;;;;11.73;9.85;;;;;;;25.01;48.98;98648.94;5017423;28;20264;-84
2022/07/30 06:54:17;;;;;;;14.48;9.75;;;;;;;28.08;48.97;99180.38;5017712;28;20193;-85
2022/07/30 06:56:42;;;;;;;14.80;10.38;;;;;;;28.36;48.13;99181.25;5035385;28;20160;-84
2022/07/30 06:59:08;;;;;;;11.85;9.70;;;;;;;27.15;47.50;99020.97;5037500;28;20220;-85
2022/07/30 07:01:33;;;;;;;13.73;9.90;;;;;;;27.83;47.81;99072.69;5035983;28;20254;-85
2022/07/30 07:03:58;;;;;;;12.43;8.85;;;;;;;27.97;46.16;99062.69;5019285;28;20184;-84
2022/07/30 07:06:24;;;;;;;10.70;9.20;;;;;;;27.56;46.87;99110.81;5053879;28;20165;-84
2022/07/30 07:08:49;;;;;;;11.10;8.93;;;;;;;27.69;45.30;99034.09;5046762;28;20222;-83
2022/07/30 07:11:15;;;;;;;12.55;8.95;;;;;;;28.88;44.32;99156.09;5036838;28;20188;-86
2022/07/30 07:13:40;;;;;;;10.85;9.65;;;;;;;28.65;43.88;99057.88;5040241;28;20181;-85
2022/07/30 07:16:06;;;;;;;10.80;8.80;;;;;;;28.63;42.91;99060.53;5038128;28;20179;-84
2022/07/30 07:18:31;;;;;;;11.80;9.40;;;;;;;28.84;43.27;99053.72;5035286;28;20157;-84
2022/07/30 07:20:57;;;;;;;11.43;9.48;;;;;;;28.44;44.38;99055.97;5034934;28;20154;-87
2022/07/30 07:23:23;;;;;;;11.20;9.20;;;;;;;29.17;43.93;99151.56;5017767;28;20169;-88
2022/07/30 07:25:48;;;;;;;12.50;10.13;;;;;;;27.11;42.50;98727.44;5017994;28;20170;-86
2022/07/30 07:28:14;;;;;;;12.25;9.00;;;;;;;29.49;41.61;99053.91;5039213;28;20165;-88
2022/07/30 07:30:40;;;;;;;15.10;9.60;;;;;;;27.86;42.55;98814.97;5038766;28;20641;-87
2022/07/30 07:33:06;;;;;;;11.05;9.25;;;;;;;30.33;41.93;99143.69;5036912;28;20168;-89
2022/07/30 07:35:32;;;;;;;12.55;9.13;;;;;;;30.57;40.83;99143.66;5019108;28;20237;-88
2022/07/30 07:37:59;;;;;;;11.13;9.30;;;;;;;29.79;41.05;99031.88;5011522;28;20203;-87
2022/07/30 07:40:24;;;;;;;12.50;9.85;;;;;;;28.18;42.00;98813.88;4995719;28;20162;-88
2022/07/30 07:42:49;;;;;;;12.13;9.35;;;;;;;29.76;41.19;99021.53;4995862;28;20570;-88
2022/07/30 07:45:15;;;;;;;11.70;9.82;;;;;;;29.98;40.90;99050.25;4986726;28;20521;-89
2022/07/30 07:47:48;;;;;;;15.40;9.25;;;;;;;30.35;41.34;99141.88;4991011;28;20322;-88
2022/07/30 07:50:17;;;;;;;11.10;9.05;;;;;;;30.44;40.47;99145.09;4976683;28;20161;-88
2022/07/30 07:52:43;;;;;;;13.95;9.00;;;;;;;29.36;40.87;98932.72;4976384;28;20186;-88
2022/07/30 07:55:09;;;;;;;9.73;8.75;;;;;;;30.60;40.06;99128.69;4976237;28;20199;-88
2022/07/30 07:57:43;;;;;;;10.60;9.27;;;;;;;30.58;39.06;99065.19;4974936;28;20266;-88
2022/07/30 08:00:09;;;;;;;14.35;8.90;;;;;;;30.91;38.64;99136.94;4976478;28;20583;-88
2022/07/30 08:02:35;;;;;;;9.82;8.23;;;;;;;30.25;38.25;98988.19;4974498;28;20510;-88
2022/07/30 08:05:02;;;;;;;12.65;8.57;;;;;;;30.83;38.55;99091.09;4976583;28;20650;-88
2022/07/30 08:07:29;;;;;;;10.05;8.57;;;;;;;31.19;38.98;99102.59;4976148;28;20182;-88
2022/07/30 08:09:54;;;;;;;11.07;9.35;;;;;;;31.02;38.47;99096.41;4976441;28;20632;-89
2022/07/30 08:12:20;;;;;;;11.00;9.32;;;;;;;30.14;39.91;99021.75;4976558;28;20167;-88
2022/07/30 08:14:46;;;;;;;11.50;8.80;;;;;;;30.94;38.47;99083.69;4978849;28;20335;-88
2022/07/30 08:17:11;;;;;;;10.70;9.63;;;;;;;30.34;38.23;98906.81;4981565;28;20256;-88
2022/07/30 08:19:36;;;;;;;12.13;9.25;;;;;;;31.07;37.87;98992.47;4977228;28;20234;-87
2022/07/30 08:22:02;;;;;;;10.45;9.45;;;;;;;31.40;37.35;99001.34;4976456;28;20764;-89
2022/07/30 08:24:27;;;;;;;10.90;9.30;;;;;;;32.20;38.00;99138.09;4975473;28;20175;-89
2022/07/30 08:26:53;;;;;;;11.23;8.93;;;;;;;32.38;37.17;99116.25;4975492;28;20590;-88
2022/07/30 08:29:18;;;;;;;13.57;10.10;;;;;;;31.54;36.82;98965.78;4976447;28;20176;-88
2022/07/30 08:31:43;;;;;;;11.40;9.02;;;;;;;31.19;36.98;98944.78;4974856;28;20170;-89
2022/07/30 08:34:09;;;;;;;12.35;8.82;;;;;;;32.16;36.53;99073.66;4978386;28;20199;-88
2022/07/30 08:36:34;;;;;;;10.70;8.70;;;;;;;32.15;36.35;99108.63;5014617;28;20170;-88
2022/07/30 08:39:00;;;;;;;10.02;8.88;;;;;;;31.68;36.06;98974.72;5014086;28;20185;-89
2022/07/30 08:41:26;;;;;;;10.48;8.63;;;;;;;32.36;36.26;99028.97;5014588;28;20535;-89
2022/07/30 08:43:53;;;;;;;9.88;8.68;;;;;;;32.50;36.04;99021.25;5014234;28;20649;-89
2022/07/30 08:46:23;;;;;;;11.77;8.68;;;;;;;31.65;35.39;98831.75;5016276;28;20254;-89
2022/07/30 08:48:50;;;;;;;12.75;9.10;;;;;;;33.46;34.80;99103.66;5019569;28;20159;-89
2022/07/30 08:51:18;;;;;;;14.10;9.50;;;;;;;31.85;34.55;98863.00;5019049;28;20167;-89
2022/07/30 08:53:44;;;;;;;10.80;8.75;;;;;;;32.80;35.56;99087.88;5020114;28;20233;-89
2022/07/30 08:56:10;;;;;;;11.77;8.35;;;;;;;32.36;36.52;99100.56;5019160;28;20634;-89
2022/07/30 08:58:36;;;;;;;9.10;8.20;;;;;;;32.25;34.91;99011.16;5000562;28;20174;-89
2022/07/30 09:01:03;;;;;;;9.88;8.15;;;;;;;32.76;34.43;99088.97;5018373;28;20238;-89
2022/07/30 09:03:29;;;;;;;8.60;7.78;;;;;;;33.19;33.77;99085.81;5018096;28;20602;-89
2022/07/30 09:05:54;;;;;;;9.82;8.25;;;;;;;33.32;34.68;99086.00;5000601;28;20166;-88
2022/07/30 09:08:20;;;;;;;12.00;8.02;;;;;;;33.01;34.85;99062.31;5000317;28;20171;-90
2022/07/30 09:10:46;;;;;;;9.70;8.20;;;;;;;33.09;34.54;99024.28;5002219;28;20616;-88
2022/07/30 09:13:26;;;;;;;8.10;7.30;;;;;;;33.41;34.12;99071.53;5000678;28;20199;-88
2022/07/30 09:15:52;;;;;;;8.35;7.43;;;;;;;32.21;34.99;98898.72;5018913;28;20194;-88
2022/07/30 09:18:31;;;;;;;8.23;7.40;;;;;;;33.17;34.06;99056.19;5017893;28;20170;-87
2022/07/30 09:21:19;;;;;;;9.88;7.10;;;;;;;32.64;34.35;99039.75;5016471;28;20175;-87
2022/07/30 09:24:05;;;;;;;7.15;6.45;;;;;;;33.13;33.35;99056.44;5018669;28;20229;-88
2022/07/30 09:26:33;;;;;;;8.43;6.88;;;;;;;31.99;33.24;98888.50;4999663;28;20171;-87
2022/07/30 09:29:15;;;;;;;7.72;7.03;;;;;;;33.40;32.35;99040.97;5017799;28;20175;-90
2022/07/30 09:32:01;;;;;;;7.50;6.80;;;;;;;33.74;32.57;99040.81;4999880;28;20272;-89
2022/07/30 09:34:33;;;;;;;9.73;7.07;;;;;;;33.28;32.05;99041.63;5017748;28;20242;-88
2022/07/30 09:37:15;;;;;;;7.80;6.80;;;;;;;33.19;32.36;98977.38;5016536;28;20179;-89
2022/07/30 09:39:42;;;;;;;7.75;6.80;;;;;;;33.16;32.08;99007.25;5000211;28;20174;-89
2022/07/30 09:42:22;;;;;;;7.38;6.60;;;;;;;32.96;31.52;98881.56;5016633;28;20182;-87
2022/07/30 09:44:48;;;;;;;8.70;6.30;;;;;;;34.27;30.09;99030.75;5017462;28;20236;-89
2022/07/30 09:47:32;;;;;;;7.10;6.40;;;;;;;33.36;31.64;98966.78;5004384;28;20175;-89
2022/07/30 09:50:09;;;;;;;8.57;6.80;;;;;;;33.63;32.03;99037.94;5017856;28;20209;-88
2022/07/30 09:52:38;;;;;;;7.53;6.70;;;;;;;33.36;32.03;98979.06;5017256;28;20170;-88
2022/07/30 09:55:04;;;;;;;7.78;6.28;;;;;;;33.64;31.61;98987.13;4999282;28;20209;-87
2022/07/30 09:57:29;;;;;;;7.18;6.57;;;;;;;32.14;32.09;98785.53;5020153;28;20174;-88
2022/07/30 09:59:56;;;;;;;7.97;7.13;;;;;;;32.48;33.13;98892.03;5019952;28;20166;-88
2022/07/30 10:02:29;;;;;;;8.63;7.28;;;;;;;33.51;32.64;99017.59;5018946;28;20186;-87
2022/07/30 10:05:10;;;;;;;6.60;6.00;;;;;;;33.07;31.65;98960.50;4999878;28;20162;-88
2022/07/30 10:07:37;;;;;;;8.05;6.35;;;;;;;32.40;32.21;98840.03;5017521;28;20190;-88
2022/07/30 10:10:03;;;;;;;7.25;6.55;;;;;;;32.47;31.73;98848.44;5017204;28;20167;-88
2022/07/30 10:12:32;;;;;;;7.03;6.32;;;;;;;32.60;32.32;98866.06;5016609;28;20666;-87
2022/07/30 10:15:00;;;;;;;7.60;6.70;;;;;;;33.88;31.77;98948.94;5017204;28;20199;-88
2022/07/30 10:17:26;;;;;;;7.00;6.28;;;;;;;33.84;30.39;98989.47;5016553;28;20170;-88
2022/07/30 10:19:52;;;;;;;7.97;6.78;;;;;;;34.25;30.40;98998.47;5017689;28;20163;-88
2022/07/30 10:22:17;;;;;;;7.03;6.32;;;;;;;33.51;30.28;98936.22;5017160;28;20304;-87
2022/07/30 10:24:44;;;;;;;7.63;6.55;;;;;;;33.52;30.99;98927.38;5020869;28;21146;-88
2022/07/30 10:27:10;;;;;;;6.85;6.25;;;;;;;34.15;30.38;98997.28;5017893;28;20593;-88
2022/07/30 10:29:37;;;;;;;6.65;5.95;;;;;;;34.14;29.91;98979.84;5016358;28;20233;-88
2022/07/30 10:32:03;;;;;;;8.10;7.30;;;;;;;34.08;29.33;98964.44;5015950;28;20179;-87
2022/07/30 10:34:29;;;;;;;8.13;6.50;;;;;;;33.03;30.61;98861.91;5016034;28;20233;-87
2022/07/30 10:36:59;;;;;;;6.15;5.57;;;;;;;33.77;30.25;98986.34;4999270;28;20245;-88
2022/07/30 10:39:37;;;;;;;7.50;6.07;;;;;;;32.91;30.12;98849.47;4999218;28;20166;-87
2022/07/30 10:42:05;;;;;;;7.45;5.82;;;;;;;33.71;30.50;98975.34;4998439;28;20249;-88
2022/07/30 10:44:51;;;;;;;6.88;6.18;;;;;;;33.88;30.46;98980.47;5016558;28;20674;-88
2022/07/30 10:47:18;;;;;;;6.40;5.85;;;;;;;33.61;30.42;98966.28;5016597;28;20163;-88
2022/07/30 10:50:14;;;;;;;6.78;5.88;;;;;;;33.94;29.96;98911.81;5016420;28;20163;-88
2022/07/30 10:52:51;;;;;;;7.85;5.70;;;;;;;33.44;29.89;98845.59;4955379;29;20283;-87
2022/07/30 10:55:28;;;;;;;9.20;7.25;;;;;;;33.92;31.03;98942.59;4955524;29;20255;-88
2022/07/30 10:58:06;;;;;;;17.80;13.52;;;;;;;34.48;30.74;98948.88;4939661;29;20223;-87
2022/07/30 11:00:34;;;;;;;6.47;5.88;;;;;;;34.62;28.92;98946.28;4955451;29;20790;-87
2022/07/30 11:03:16;;;;;;;7.40;6.70;;;;;;;34.52;29.04;98897.81;4955480;29;20228;-88
2022/07/30 11:05:43;;;;;;;7.43;5.70;;;;;;;34.67;29.22;98929.28;4939163;29;20188;-89
2022/07/30 11:08:38;;;;;;;6.50;5.65;;;;;;;34.71;29.29;98935.22;4938835;29;20188;-88
2022/07/30 11:11:23;;;;;;;7.53;5.88;;;;;;;34.46;30.65;98938.47;4939768;29;20184;-89
2022/07/30 11:13:53;;;;;;;7.10;5.80;;;;;;;34.37;30.56;98926.72;4954869;29;20188;-88
2022/07/30 11:16:20;;;;;;;6.20;5.55;;;;;;;34.23;30.53;98928.47;4955274;29;20779;-89
2022/07/30 11:19:16;;;;;;;7.75;5.80;;;;;;;34.24;29.55;98923.16;4939049;29;20208;-88
2022/07/30 11:21:48;;;;;;;7.32;5.70;;;;;;;34.49;29.91;98914.63;4883536;29;20330;-89
2022/07/30 11:24:43;;;;;;;7.13;5.95;;;;;;;34.37;30.13;98920.63;4882399;29;20667;-88
2022/07/30 11:27:09;;;;;;;7.00;5.50;;;;;;;33.66;30.69;98799.66;4897566;29;21010;-87
2022/07/30 11:29:37;;;;;;;8.10;5.95;;;;;;;34.46;29.93;98867.47;4922925;29;20196;-88
2022/07/30 11:32:22;;;;;;;8.48;5.80;;;;;;;35.40;29.87;98904.44;4955151;29;20196;-88
2022/07/30 11:34:49;;;;;;;11.35;5.65;;;;;;;35.52;29.10;98908.03;4957263;28;20372;-88